Aktualne dane pomiarowe

Uwaga, wersja testowa! Automatyczne pobieranie danych za pomocą narzędzi lub skryptów to umożliwiających jest zabronione.

Dane meteo z obszaru Polski uzyskane na podstawie depesz SYNOP pobieranych co godzinę z NWS. Najedź myszką na symbol przedstawiony w tabeli, aby uzyskać informacje co do jego znaczenia. Prosimy pamiętać, że to testowa wersja strony, która jeszcze nie jest ukończona. Stworzono również jest krótki FAQ dotyczący korzystania z tej podstrony Anomalie temperatury w chwili obecnej odniesione są do okresu referencyjnego 1951-2016. Okres ten będzie później zmieniony na 1981-2010. Kliknij ikonę aby pobrać plik CSV. Kliknij ikonę aby wygenerować mapę synoptyczną dla danego terminu.

Wybierz Datę:    

        

Elbląg-Milejewo (12160)

Dane terminowe dla wybranej stacji. Kliknij datę, aby otrzymać dane z tego terminu dla wszystkich stacji.

TemperaturaZachmurzenieWiatrCiśnienieOpadyPogoda
 Data t td wb tx tn tg rh  Nt Nl Cl Cm Ch ws wd g1 g2 wx mslp ppp ch 24h 12h t ww ww w1 w2  
2019-06-06 23:00:00 18.3 16.8 17.2--- 9115.0wx-wx2wx--21013.1 991.4 -0.2---------
2019-06-06 22:00:00 18.6 16.9 17.4--- 9015.0wx-wx2wx--21013.4 991.7 0.5---------
2019-06-06 21:00:00 19.3 17.3 17.9--- 8815.0wxwxwxwxwx2wx--21013.5 991.8 1.0---------
2019-06-06 20:00:00 19.8 17.4 18.1--- 8615.0wxwxwxwx3wx--31013.2 991.6 0.9---------
2019-06-06 19:00:00 20.4 17.4 18.3--- 8315.0wxwxwxwxwx2wx--21012.8 991.2 -0.1---------
2019-06-06 18:00:00 21.1 17.7 18.7 27.3 20.8- 8120.0wxwxwxwxwx2wx-1421012.3 990.8 -0.9--12wx-w1w2--
2019-06-06 17:00:00 21.9 17.9 19.1--- 7820.0wxwxwxwxwx3wx--31012.1 990.7 -0.7---------
2019-06-06 16:00:00 21.4 16.8 18.2--- 7520.0wxwxwxwx4wx-1341012.8 991.3 -0.4---wx-w1--
2019-06-06 15:00:00 22.7 15.0 17.7--- 6220.0wxwxwx7wx141471013.1 991.7 -0.1---------
2019-06-06 14:00:00 27.0 14.7 19.2--- 4720.0wxwxwxwx4wx--41012.5 991.4 -0.5---------
2019-06-06 13:00:00 25.7 14.5 18.6--- 5020.0wxwxwxwx4wx--41012.9 991.7 -0.5---------
2019-06-06 12:00:00 25.7 14.8 18.8--- 5120.0wxwxwxwx5wx111151013.0 991.8 -0.6- 0.06------
2019-06-06 11:00:00 26.2 14.6 18.9--- 4920.0wxwxwxwx5wx-1051013.1 991.9 -0.4---------
2019-06-06 10:00:00 25.6 15.9 19.3--- 5520.0wxwxwxwx4wx--41013.4 992.2 -0.1---------
2019-06-06 09:00:00 24.6 15.2 18.5--- 5620.0wxwxwxwx5wx-1051013.7 992.4 0.0---------
2019-06-06 08:00:00 23.7 15.7 18.5--- 6120.0wx-wx5wx---1013.6 992.3 0.2---------
2019-06-06 07:00:00 22.5 15.6 17.9--- 6520.0wx-wxwx5wx--51013.7 992.3 0.2---------
2019-06-06 06:00:00 20.9 15.7 17.4 24.1 17.3 16 7220.0wx-wx4wx--41014.0 992.4 0.2- 0.012----- 15.8
2019-06-06 05:00:00 19.6 15.5 16.8--- 7720.0wx-wx4wx--41013.7 992.1 -0.1---------
2019-06-06 04:00:00 18.4 15.1 16.1--- 8120.0wx-wx3wx--31013.8 992.1 -0.2---------
2019-06-06 03:00:00 17.4 14.7 15.5--- 8420.0wx-wx2wx--21014.0 992.2 -0.5---------
2019-06-06 02:00:00 17.5 14.6 15.5--- 8320.0wx-wx2wx--21014.0 992.2 -0.7---------
2019-06-06 01:00:00 18.0 14.9 15.9--- 8220.0wx-2wx--21014.1 992.3 -0.6---------
2019-06-06 00:00:00 18.5 15.0 16.1--- 8020.0wx-2wx--21014.4 992.7 -0.2- 0.06------
2019-06-05 23:00:00 19.0 14.9 16.2--- 7720.0wx-2wx--21014.6 992.9 0.1---------
2019-06-05 22:00:00 19.6 14.6 16.3--- 7320.0wx-wx2wx--21014.6 992.9 0.5---------
2019-06-05 21:00:00 20.4 14.7 16.6--- 7020.0wxwxwxwx2wx--21014.5 992.9 0.8---------
2019-06-05 20:00:00 21.4 14.8 17.1--- 6620.0wxwxwxwxwx3wx---1014.3 992.8 0.6---------
2019-06-05 19:00:00 22.7 14.8 17.6--- 6120.0wxwxwxwxwx3wx---1013.8 992.4 0.5---------
2019-06-05 18:00:00 24.1 15.0 18.2 28.0 23.3- 5720.0wxwxwxwx3wx-1031013.4 992.1 -0.1- 0.012------
2019-06-05 17:00:00 24.8 15.4 18.7--- 5620.0wxwxwxwx4wx--41013.5 992.2 -0.2---------
2019-06-05 16:00:00 27.2 15.2 19.5--- 4820.0wxwxwx4wx--41013.0 991.9 -1.0---------
2019-06-05 15:00:00 27.7 14.7 19.5--- 4520.0wxwxwx4wx-1041013.3 992.2 -1.1---------
2019-06-05 14:00:00 27.8 15.1 19.7--- 4620.0wxwxwx4wx--41013.5 992.4 -1.1---------
2019-06-05 13:00:00 27.8 16.1 20.2--- 4920.0wxwxwx4wx--41014.0 992.9 -0.9---------
2019-06-05 12:00:00 27.3 15.0 19.5--- 4720.0wxwxwx5wx--51014.4 993.3 -0.5- 0.06------
2019-06-05 11:00:00 27.0 14.4 19.1--- 4620.0wxwxwx4wx--41014.6 993.5 -0.2---------
2019-06-05 10:00:00 26.7 15.7 19.6--- 5120.0wxwxwx4wx--41015.0 993.8 0.5---------
2019-06-05 09:00:00 26.1 15.5 19.3--- 5220.0wxwxwx3wx--31015.0 993.8 0.6---------
2019-06-05 08:00:00 25.6 15.9 19.3--- 5520.0wx-2wx--21014.9 993.7 0.7---------
2019-06-05 07:00:00 24.6 15.5 18.7--- 5720.0wx-2wx--21014.6 993.3 0.4---------
2019-06-05 06:00:00 23.3 15.9 18.4 25.3 19.4 18 6320.0wx-2wx---1014.6 993.2 0.6-------- 15.9
2019-06-05 05:00:00 21.8 14.7 17.2--- 6420.0wx-2wx--21014.5 993.0 0.8---------
2019-06-05 04:00:00 20.3 14.2 16.3--- 6820.0wx-2wx--21014.5 992.9 0.5---------
2019-06-05 03:00:00 19.4 13.6 15.6--- 6920.0wx-3wx--31014.3 992.6 0.0---------
2019-06-05 02:00:00 20.0 13.7 15.9--- 6720.0wx-3wx--31013.8 992.2 -0.3---------
2019-06-05 01:00:00 20.6 13.8 16.2--- 6520.0wx-3wx--31014.0 992.4 -0.1---------
2019-06-05 00:00:00 21.1 13.8 16.4--- 6320.0wx-3wx--31014.1 992.6 0.1- 0.06------
1.5 ms

 

Print Friendly, PDF & Email